createdAt,value
2019-03-08T00:00:19.252Z,81.19
2019-03-08T00:02:48.519Z,81.22
2019-03-08T00:05:18.121Z,81.72
2019-03-08T00:07:47.669Z,81.59
2019-03-08T00:10:16.987Z,81.67
2019-03-08T00:12:46.251Z,81.84
2019-03-08T00:15:16.051Z,82.26
2019-03-08T00:17:45.351Z,82.14
2019-03-08T00:20:14.660Z,82.03
2019-03-08T00:22:44.455Z,82.13
2019-03-08T00:25:13.892Z,82.69
2019-03-08T00:27:43.208Z,83.11
2019-03-08T00:30:12.841Z,82.96
2019-03-08T00:32:42.456Z,83.10
2019-03-08T00:35:11.867Z,83.33
2019-03-08T00:37:41.327Z,83.17
2019-03-08T00:40:10.871Z,83.21
2019-03-08T00:42:40.165Z,82.78
2019-03-08T00:45:10.448Z,82.93
2019-03-08T00:47:39.833Z,82.89
2019-03-08T00:50:09.420Z,83.04
2019-03-08T00:52:38.963Z,82.91
2019-03-08T00:55:08.379Z,82.69
2019-03-08T00:57:37.709Z,82.50
2019-03-08T01:00:11.336Z,81.87
2019-03-08T01:02:40.647Z,82.17
2019-03-08T01:05:10.471Z,82.05
2019-03-08T01:07:39.951Z,81.78
2019-03-08T01:10:11.758Z,81.68
2019-03-08T01:12:41.323Z,82.13
2019-03-08T01:15:12.058Z,82.31
2019-03-08T01:17:41.387Z,82.15
2019-03-08T01:20:11.951Z,82.16
2019-03-08T01:22:41.295Z,82.12
2019-03-08T01:25:11.111Z,81.98
2019-03-08T01:28:15.988Z,81.83
2019-03-08T01:30:45.485Z,81.66
2019-03-08T01:33:15.203Z,81.74
2019-03-08T01:35:44.797Z,81.35
2019-03-08T01:38:14.091Z,81.44
2019-03-08T01:40:43.444Z,80.90
2019-03-08T01:43:12.865Z,80.82
2019-03-08T01:45:42.142Z,80.82
2019-03-08T01:48:11.753Z,80.47
2019-03-08T01:50:41.037Z,80.70
2019-03-08T01:53:10.312Z,80.77
2019-03-08T01:55:39.609Z,81.00
2019-03-08T01:58:09.002Z,81.17
2019-03-08T02:00:38.309Z,81.27
2019-03-08T02:03:07.794Z,81.34
2019-03-08T02:05:37.170Z,81.43
2019-03-08T02:08:06.509Z,81.43
2019-03-08T02:10:35.856Z,81.56
2019-03-08T02:13:05.344Z,81.38
2019-03-08T02:15:34.963Z,81.60
2019-03-08T02:18:04.200Z,81.52
2019-03-08T02:20:33.471Z,81.05
2019-03-08T02:23:02.792Z,80.81
2019-03-08T02:25:32.063Z,80.68
2019-03-08T02:28:01.530Z,80.14
2019-03-08T02:30:30.843Z,79.99
2019-03-08T02:33:00.220Z,79.41
2019-03-08T02:35:29.617Z,79.66
2019-03-08T02:37:58.905Z,79.65
2019-03-08T02:40:32.907Z,79.70
2019-03-08T02:43:02.634Z,79.46
2019-03-08T02:45:32.036Z,79.96
2019-03-08T02:48:01.520Z,80.38
2019-03-08T02:50:30.824Z,81.31
2019-03-08T02:53:00.163Z,82.07
2019-03-08T02:55:29.519Z,82.16
2019-03-08T02:57:58.849Z,83.00
2019-03-08T03:00:32.301Z,82.80
2019-03-08T03:03:01.596Z,83.57
2019-03-08T03:05:30.897Z,83.68
2019-03-08T03:08:00.395Z,84.02
2019-03-08T03:10:29.959Z,84.75
2019-03-08T03:12:59.317Z,84.97
2019-03-08T03:15:28.797Z,85.01
2019-03-08T03:17:58.085Z,85.14
2019-03-08T03:20:27.407Z,85.13
2019-03-08T03:22:57.026Z,84.59
2019-03-08T03:25:26.321Z,85.91
2019-03-08T03:27:55.642Z,84.85
2019-03-08T03:30:25.205Z,85.71
2019-03-08T03:32:54.508Z,85.37
2019-03-08T03:35:23.850Z,86.05
2019-03-08T03:37:53.370Z,85.70
2019-03-08T03:40:22.647Z,86.17
2019-03-08T03:42:51.930Z,86.03
2019-03-08T03:45:22.223Z,86.03
2019-03-08T03:47:51.554Z,86.70
2019-03-08T03:50:21.116Z,86.82
2019-03-08T03:52:50.565Z,86.70
2019-03-08T03:55:20.285Z,86.65
2019-03-08T03:57:49.561Z,87.17
2019-03-08T04:00:19.371Z,87.14
2019-03-08T04:02:48.694Z,87.05
2019-03-08T04:05:17.984Z,86.82
2019-03-08T04:07:47.384Z,86.90
2019-03-08T04:10:16.774Z,87.01
2019-03-08T04:12:46.089Z,86.86
2019-03-08T04:15:15.960Z,87.04
2019-03-08T04:17:45.560Z,87.26
2019-03-08T04:20:15.244Z,86.96
2019-03-08T04:22:44.747Z,87.30
2019-03-08T04:25:14.182Z,86.83
2019-03-08T04:27:43.731Z,87.60
2019-03-08T04:30:14.862Z,87.84
2019-03-08T04:32:44.243Z,88.20
2019-03-08T04:35:13.662Z,88.22
2019-03-08T04:37:43.131Z,88.85
2019-03-08T04:40:12.594Z,88.56
2019-03-08T04:42:41.980Z,88.19
2019-03-08T04:45:11.866Z,87.85
2019-03-08T04:47:41.187Z,87.32
2019-03-08T04:50:11.245Z,86.64
2019-03-08T04:52:40.759Z,86.82
2019-03-08T04:55:11.905Z,86.94
2019-03-08T04:57:41.180Z,87.01
2019-03-08T05:00:12.042Z,87.21
2019-03-08T05:02:41.328Z,86.54
2019-03-08T05:05:10.648Z,86.87
2019-03-08T05:07:40.119Z,86.70
2019-03-08T05:10:11.782Z,86.92
2019-03-08T05:12:41.490Z,86.81
2019-03-08T05:15:10.847Z,87.83
2019-03-08T05:17:40.170Z,87.29
2019-03-08T05:20:10.182Z,87.30
2019-03-08T05:22:39.436Z,87.49
2019-03-08T05:25:08.909Z,87.34
2019-03-08T05:27:38.493Z,87.75
2019-03-08T05:30:08.242Z,87.49
2019-03-08T05:32:37.543Z,87.84
2019-03-08T05:35:07.711Z,88.58
2019-03-08T05:37:36.982Z,88.92
2019-03-08T05:40:07.038Z,88.67
2019-03-08T05:42:36.347Z,88.89
2019-03-08T05:45:06.294Z,88.84
2019-03-08T05:47:35.567Z,88.88
2019-03-08T05:50:05.529Z,89.10
2019-03-08T05:52:34.878Z,89.62
2019-03-08T05:55:04.379Z,89.97
2019-03-08T05:57:33.765Z,90.01
2019-03-08T06:00:03.154Z,89.73
2019-03-08T06:02:32.460Z,90.26
2019-03-08T06:05:02.033Z,90.49
2019-03-08T06:07:31.351Z,91.06
2019-03-08T06:10:00.649Z,91.15
2019-03-08T06:12:30.052Z,91.18
2019-03-08T06:14:59.355Z,91.19
2019-03-08T06:17:28.686Z,91.41
2019-03-08T06:19:58.243Z,91.44
2019-03-08T06:22:27.517Z,91.65
2019-03-08T06:24:56.789Z,91.52
2019-03-08T06:27:26.302Z,91.12
2019-03-08T06:29:55.619Z,90.77
2019-03-08T06:32:24.909Z,90.73
2019-03-08T06:34:54.550Z,90.57
2019-03-08T06:37:23.852Z,90.18
2019-03-08T06:39:53.146Z,90.12
2019-03-08T06:42:22.694Z,90.08
2019-03-08T06:44:52.033Z,90.29
2019-03-08T06:47:21.300Z,90.16
2019-03-08T06:49:51.024Z,89.74
2019-03-08T06:52:20.514Z,89.33
2019-03-08T06:54:49.864Z,89.20
2019-03-08T06:57:20.480Z,89.04
2019-03-08T06:59:54.350Z,88.25
2019-03-08T07:02:24.085Z,88.54
2019-03-08T07:04:53.372Z,88.72
2019-03-08T07:07:22.687Z,88.80
2019-03-08T07:09:52.247Z,88.39
2019-03-08T07:12:21.557Z,87.87
2019-03-08T07:14:50.841Z,87.81
2019-03-08T07:17:20.595Z,87.76
2019-03-08T07:20:17.801Z,87.63
2019-03-08T07:23:11.042Z,87.98
2019-03-08T07:25:52.625Z,87.54
2019-03-08T07:28:39.069Z,87.93
2019-03-08T07:31:32.264Z,87.65
2019-03-08T07:34:20.910Z,87.24
2019-03-08T07:37:08.006Z,87.11
2019-03-08T07:39:45.668Z,86.97
2019-03-08T07:42:36.766Z,86.13
2019-03-08T07:45:40.867Z,86.57
2019-03-08T07:48:29.121Z,85.57
2019-03-08T07:51:14.318Z,85.14
2019-03-08T07:53:58.879Z,85.40
2019-03-08T07:56:40.390Z,84.82
2019-03-08T07:59:21.813Z,83.48
2019-03-08T08:02:17.249Z,83.58
2019-03-08T08:05:05.476Z,82.54
2019-03-08T08:07:53.760Z,83.63
2019-03-08T08:10:40.428Z,83.51
2019-03-08T08:13:28.700Z,82.02
2019-03-08T08:16:04.997Z,82.50
2019-03-08T08:18:56.310Z,82.18
2019-03-08T08:22:02.552Z,81.91
2019-03-08T08:24:37.918Z,80.66
2019-03-08T08:27:12.988Z,81.45
2019-03-08T08:30:07.456Z,81.11
2019-03-08T08:32:55.166Z,79.98
2019-03-08T08:35:41.551Z,80.05
2019-03-08T08:38:28.244Z,80.65
2019-03-08T08:41:18.348Z,80.28
2019-03-08T08:43:57.921Z,81.05
2019-03-08T08:46:55.264Z,81.68
2019-03-08T08:49:54.317Z,81.31
2019-03-08T08:52:54.385Z,81.54
2019-03-08T08:55:36.521Z,80.15
2019-03-08T08:58:23.567Z,80.13
2019-03-08T09:01:01.085Z,80.47
2019-03-08T09:03:49.400Z,80.67
2019-03-08T09:06:46.827Z,79.39
2019-03-08T09:09:33.725Z,78.75
2019-03-08T09:12:11.257Z,81.04
2019-03-08T09:14:54.962Z,80.43
2019-03-08T09:17:52.235Z,80.37
2019-03-08T09:20:55.504Z,81.32
2019-03-08T09:23:55.858Z,79.47
2019-03-08T09:26:53.325Z,79.24
2019-03-08T09:29:47.465Z,79.49
2019-03-08T09:32:40.686Z,79.40
2019-03-08T09:35:24.269Z,79.55
2019-03-08T09:38:27.729Z,80.06
2019-03-08T09:41:14.433Z,81.72
2019-03-08T09:43:58.030Z,82.20
2019-03-08T09:46:34.323Z,82.98
2019-03-08T09:49:28.924Z,82.79
2019-03-08T09:52:11.985Z,83.07
2019-03-08T09:54:56.086Z,83.60
2019-03-08T09:57:32.140Z,79.72
2019-03-08T10:00:18.971Z,73.08
2019-03-08T10:03:07.051Z,67.34
2019-03-08T10:05:54.233Z,65.87
2019-03-08T10:08:30.859Z,66.17
2019-03-08T10:11:17.433Z,66.07
2019-03-08T10:13:52.627Z,67.00
2019-03-08T10:16:29.586Z,67.67
2019-03-08T10:19:13.271Z,69.40
2019-03-08T10:22:01.691Z,69.67
2019-03-08T10:24:53.037Z,70.33
2019-03-08T10:27:42.017Z,71.74
2019-03-08T10:30:29.063Z,72.03
2019-03-08T10:33:26.612Z,73.97
2019-03-08T10:36:05.521Z,72.20
2019-03-08T10:38:46.300Z,72.02
2019-03-08T10:41:40.592Z,72.00
2019-03-08T10:44:27.882Z,74.06
2019-03-08T10:47:16.127Z,73.91
2019-03-08T10:50:10.475Z,74.84
2019-03-08T10:53:01.830Z,76.56
2019-03-08T10:55:40.796Z,78.90
2019-03-08T10:58:27.751Z,78.54
2019-03-08T11:01:03.424Z,80.29
2019-03-08T11:03:48.225Z,81.45
2019-03-08T11:06:32.625Z,81.71
2019-03-08T11:09:17.830Z,80.35
2019-03-08T11:11:55.439Z,79.24
2019-03-08T11:14:55.893Z,79.62
2019-03-08T11:17:38.038Z,79.43
2019-03-08T11:20:38.924Z,79.65
2019-03-08T11:23:30.134Z,78.83
2019-03-08T11:26:10.480Z,75.86
2019-03-08T11:28:58.501Z,76.11
2019-03-08T11:32:01.867Z,75.25
2019-03-08T11:34:52.065Z,74.92
2019-03-08T11:37:41.813Z,74.03
2019-03-08T11:40:43.217Z,75.39
2019-03-08T11:43:23.433Z,74.18
2019-03-08T11:45:58.369Z,74.07
2019-03-08T11:48:45.240Z,73.30
2019-03-08T11:51:49.012Z,73.98
2019-03-08T11:54:24.438Z,74.07
2019-03-08T11:57:16.151Z,74.40
2019-03-08T12:00:03.284Z,75.58
2019-03-08T12:02:57.403Z,73.84
2019-03-08T12:05:38.092Z,71.82
2019-03-08T12:08:25.221Z,73.79
2019-03-08T12:11:28.864Z,72.21
2019-03-08T12:14:22.991Z,71.22
2019-03-08T12:17:10.271Z,70.89
2019-03-08T12:19:45.667Z,70.31
2019-03-08T12:22:46.011Z,69.35
2019-03-08T12:25:40.944Z,67.06
2019-03-08T12:28:32.540Z,68.37
2019-03-08T12:31:20.966Z,69.58
2019-03-08T12:34:12.094Z,67.98
2019-03-08T12:37:03.231Z,68.42
2019-03-08T12:40:03.674Z,64.98
2019-03-08T12:42:51.744Z,68.97
2019-03-08T12:45:42.958Z,66.49
2019-03-08T12:48:43.286Z,66.15
2019-03-08T12:51:31.468Z,65.09
2019-03-08T12:54:22.959Z,64.52
2019-03-08T12:57:02.922Z,66.37
2019-03-08T13:00:03.451Z,64.23
2019-03-08T13:03:09.764Z,64.59
2019-03-08T13:05:57.008Z,64.99
2019-03-08T13:08:40.735Z,66.00
2019-03-08T13:11:10.236Z,63.65
2019-03-08T13:13:39.490Z,64.78
2019-03-08T13:16:09.223Z,63.80
2019-03-08T13:18:38.674Z,61.34
2019-03-08T13:21:07.904Z,61.90
2019-03-08T13:23:37.230Z,62.46
2019-03-08T13:26:06.817Z,62.52
2019-03-08T13:28:36.269Z,61.97
2019-03-08T13:31:05.725Z,60.77
2019-03-08T13:33:35.293Z,61.28
2019-03-08T13:36:04.836Z,60.13
2019-03-08T13:38:34.094Z,59.91
2019-03-08T13:41:03.503Z,60.32
2019-03-08T13:43:32.803Z,59.64
2019-03-08T13:46:02.271Z,60.61
2019-03-08T13:48:31.617Z,60.69
2019-03-08T13:51:01.015Z,58.95
2019-03-08T13:53:30.371Z,58.78
2019-03-08T13:55:59.707Z,59.66
2019-03-08T13:58:29.318Z,58.95
2019-03-08T14:00:58.711Z,57.70
2019-03-08T14:03:27.985Z,57.97
2019-03-08T14:05:57.299Z,55.75
2019-03-08T14:08:26.596Z,55.58
2019-03-08T14:10:56.323Z,56.07
2019-03-08T14:13:25.623Z,57.23
2019-03-08T14:15:55.490Z,56.96
2019-03-08T14:18:24.958Z,56.57
2019-03-08T14:20:54.218Z,57.54
2019-03-08T14:23:23.559Z,57.97
2019-03-08T14:25:53.253Z,55.84
2019-03-08T14:28:22.526Z,55.77
2019-03-08T14:31:22.827Z,55.67
2019-03-08T14:33:52.388Z,53.73
2019-03-08T14:36:21.679Z,55.74
2019-03-08T14:38:51.043Z,53.39
2019-03-08T14:41:35.139Z,54.37
2019-03-08T14:44:12.727Z,52.27
2019-03-08T14:46:56.455Z,51.95
2019-03-08T14:49:26.863Z,55.19
2019-03-08T14:51:56.172Z,53.05
2019-03-08T14:54:25.652Z,52.72
2019-03-08T14:56:55.023Z,54.02
2019-03-08T14:59:24.362Z,55.15
2019-03-08T15:01:53.691Z,52.94
2019-03-08T15:04:23.050Z,52.17
2019-03-08T15:06:52.669Z,54.04
2019-03-08T15:09:22.001Z,51.16
2019-03-08T15:11:51.557Z,54.56
2019-03-08T15:14:20.870Z,54.15
2019-03-08T15:16:50.151Z,55.26
2019-03-08T15:19:19.446Z,54.49
2019-03-08T15:21:48.910Z,54.56
2019-03-08T15:24:18.182Z,55.14
2019-03-08T15:26:47.719Z,54.08
2019-03-08T15:29:17.030Z,55.66
2019-03-08T15:31:46.381Z,55.97
2019-03-08T15:34:21.497Z,56.39
2019-03-08T15:36:46.915Z,55.81
2019-03-08T15:39:16.282Z,54.17
2019-03-08T15:41:45.785Z,54.41
2019-03-08T15:44:15.094Z,53.99
2019-03-08T15:46:44.655Z,54.69
2019-03-08T15:49:13.966Z,55.32
2019-03-08T15:51:43.304Z,54.56
2019-03-08T15:54:12.641Z,56.36
2019-03-08T15:56:42.184Z,55.01
2019-03-08T15:59:11.543Z,54.95
2019-03-08T16:01:40.838Z,55.44
2019-03-08T16:04:12.187Z,55.75
2019-03-08T16:06:43.927Z,55.52
2019-03-08T16:09:12.233Z,55.60
2019-03-08T16:11:41.487Z,58.04
2019-03-08T16:14:10.796Z,57.78
2019-03-08T16:16:40.226Z,57.90
2019-03-08T16:19:09.517Z,58.03
2019-03-08T16:21:38.848Z,57.96
2019-03-08T16:24:08.321Z,58.18
2019-03-08T16:26:37.589Z,56.87
2019-03-08T16:29:06.765Z,57.54
2019-03-08T16:31:59.961Z,56.59
2019-03-08T16:34:29.109Z,57.34
2019-03-08T16:37:03.235Z,58.01
2019-03-08T16:39:39.974Z,58.00
2019-03-08T16:42:31.249Z,56.86
2019-03-08T16:45:19.229Z,57.55
2019-03-08T16:48:10.394Z,59.20
2019-03-08T16:51:01.068Z,59.47
2019-03-08T16:53:48.392Z,59.39
2019-03-08T16:56:26.631Z,59.42
2019-03-08T16:59:05.622Z,59.24
2019-03-08T17:01:50.178Z,59.91
2019-03-08T17:04:28.596Z,60.05
2019-03-08T17:07:20.856Z,59.68
2019-03-08T17:10:15.138Z,60.76
2019-03-08T17:13:01.963Z,60.30
2019-03-08T17:15:59.263Z,60.16
2019-03-08T17:18:42.010Z,61.21
2019-03-08T17:21:21.976Z,60.46
2019-03-08T17:24:13.787Z,60.08
2019-03-08T17:26:50.296Z,58.99
2019-03-08T17:29:38.606Z,60.01
2019-03-08T17:32:25.341Z,60.26
2019-03-08T17:35:13.681Z,60.58
2019-03-08T17:38:20.202Z,60.88
2019-03-08T17:41:11.322Z,62.09
2019-03-08T17:43:58.164Z,63.47
2019-03-08T17:46:46.717Z,62.99
2019-03-08T17:49:50.138Z,62.23
2019-03-08T17:52:30.806Z,62.84
2019-03-08T17:55:28.132Z,63.34
2019-03-08T17:58:19.380Z,63.79
2019-03-08T18:01:22.971Z,64.89
2019-03-08T18:04:10.412Z,64.59
2019-03-08T18:07:10.696Z,65.04
2019-03-08T18:10:01.951Z,63.22
2019-03-08T18:12:50.277Z,64.11
2019-03-08T18:15:31.974Z,64.57
2019-03-08T18:18:20.187Z,64.13
2019-03-08T18:20:56.417Z,64.72
2019-03-08T18:23:44.764Z,65.16
2019-03-08T18:26:36.399Z,65.57
2019-03-08T18:29:18.291Z,66.80
2019-03-08T18:31:57.181Z,67.06
2019-03-08T18:34:48.178Z,67.55
2019-03-08T18:37:32.823Z,68.06
2019-03-08T18:40:39.099Z,68.40
2019-03-08T18:43:15.516Z,69.36
2019-03-08T18:46:18.688Z,69.80
2019-03-08T18:49:03.250Z,70.41
2019-03-08T18:52:06.586Z,71.43
2019-03-08T18:54:55.186Z,71.01
2019-03-08T18:58:01.471Z,70.81
2019-03-08T19:00:47.235Z,71.03
2019-03-08T19:03:31.069Z,71.30
2019-03-08T19:06:31.447Z,71.89
2019-03-08T19:09:19.741Z,71.37
2019-03-08T19:12:08.219Z,70.33
2019-03-08T19:15:05.665Z,73.40
2019-03-08T19:17:52.141Z,77.17
2019-03-08T19:20:48.306Z,78.64
2019-03-08T19:23:30.320Z,80.59
2019-03-08T19:26:10.192Z,81.00
2019-03-08T19:29:01.668Z,81.10
2019-03-08T19:31:48.862Z,82.30
2019-03-08T19:34:43.050Z,82.88
2019-03-08T19:37:37.120Z,84.05
2019-03-08T19:40:25.289Z,84.69
2019-03-08T19:43:11.675Z,85.14
2019-03-08T19:46:03.112Z,85.42
2019-03-08T19:49:06.639Z,85.45
2019-03-08T19:51:44.872Z,85.46
2019-03-08T19:54:28.227Z,84.83
2019-03-08T19:57:34.611Z,84.73
2019-03-08T20:00:25.814Z,84.16
2019-03-08T20:03:12.374Z,83.49
2019-03-08T20:05:53.523Z,82.70
2019-03-08T20:08:33.119Z,81.72
2019-03-08T20:11:12.208Z,80.36
2019-03-08T20:14:03.947Z,79.30
2019-03-08T20:16:44.807Z,78.34
2019-03-08T20:19:45.178Z,75.97
2019-03-08T20:22:32.077Z,77.85
2019-03-08T20:25:08.417Z,77.69
2019-03-08T20:27:59.032Z,76.96
2019-03-08T20:30:45.970Z,77.50
2019-03-08T20:33:30.111Z,77.50
2019-03-08T20:36:16.895Z,76.69
2019-03-08T20:39:05.353Z,76.09
2019-03-08T20:41:46.504Z,76.84
2019-03-08T20:44:22.849Z,76.50
2019-03-08T20:47:02.271Z,76.70
2019-03-08T20:49:31.681Z,75.75
2019-03-08T20:52:01.096Z,75.84
2019-03-08T20:54:30.754Z,75.91
2019-03-08T20:57:00.136Z,76.49
2019-03-08T20:59:29.519Z,76.29
2019-03-08T21:01:59.038Z,77.02
2019-03-08T21:04:28.622Z,76.30
2019-03-08T21:06:57.928Z,77.02
2019-03-08T21:09:27.270Z,76.40
2019-03-08T21:11:56.584Z,76.03
2019-03-08T21:14:25.878Z,76.01
2019-03-08T21:16:55.577Z,75.26
2019-03-08T21:19:24.950Z,75.12
2019-03-08T21:21:54.500Z,75.55
2019-03-08T21:24:24.045Z,75.20
2019-03-08T21:26:53.342Z,74.45
2019-03-08T21:29:22.888Z,74.44
2019-03-08T21:31:52.420Z,74.35
2019-03-08T21:34:21.875Z,75.61
2019-03-08T21:36:51.230Z,76.16
2019-03-08T21:39:20.743Z,76.32
2019-03-08T21:41:50.111Z,76.95
2019-03-08T21:44:19.488Z,77.51
2019-03-08T21:46:49.140Z,77.32
2019-03-08T21:49:18.490Z,77.34
2019-03-08T21:51:47.840Z,77.38
2019-03-08T21:54:17.353Z,77.24
2019-03-08T21:56:46.664Z,77.83
2019-03-08T21:59:16.262Z,78.05
2019-03-08T22:01:45.743Z,78.59
2019-03-08T22:04:39.824Z,79.05
2019-03-08T22:07:09.347Z,79.06
2019-03-08T22:09:57.594Z,79.78
2019-03-08T22:12:27.216Z,80.46
2019-03-08T22:14:56.589Z,80.91
2019-03-08T22:17:26.206Z,80.68
2019-03-08T22:19:55.690Z,80.22
2019-03-08T22:22:25.007Z,80.20
2019-03-08T22:24:54.363Z,80.05
2019-03-08T22:27:23.899Z,79.71
2019-03-08T22:29:53.261Z,79.19
2019-03-08T22:32:22.630Z,79.97
2019-03-08T22:34:52.244Z,80.39
2019-03-08T22:37:21.566Z,80.51
2019-03-08T22:39:50.949Z,80.72
2019-03-08T22:42:20.415Z,81.14
2019-03-08T22:44:49.747Z,81.80
2019-03-08T22:47:19.121Z,81.69
2019-03-08T22:49:48.391Z,81.88
2019-03-08T22:52:17.687Z,81.11
2019-03-08T22:54:47.037Z,81.68
2019-03-08T22:57:16.553Z,81.30
2019-03-08T22:59:45.995Z,81.33
2019-03-08T23:02:15.642Z,81.38
2019-03-08T23:04:44.970Z,80.79
2019-03-08T23:07:14.267Z,80.94
2019-03-08T23:09:43.590Z,81.09
2019-03-08T23:12:13.844Z,81.44
2019-03-08T23:14:43.328Z,81.44
2019-03-08T23:17:12.725Z,81.05
2019-03-08T23:19:42.037Z,80.50
2019-03-08T23:22:11.425Z,80.97
2019-03-08T23:24:40.739Z,80.41
2019-03-08T23:27:29.178Z,80.79
2019-03-08T23:30:01.352Z,81.01
2019-03-08T23:32:33.691Z,81.07
2019-03-08T23:35:02.963Z,81.45
2019-03-08T23:37:32.233Z,81.96
2019-03-08T23:40:01.552Z,82.04
2019-03-08T23:42:31.162Z,82.01
2019-03-08T23:45:00.580Z,82.28
2019-03-08T23:47:30.016Z,82.42
2019-03-08T23:49:59.295Z,82.24
2019-03-08T23:52:28.578Z,82.71
2019-03-08T23:54:58.339Z,83.08
2019-03-08T23:57:27.594Z,82.92
2019-03-08T23:59:56.877Z,83.81
